WXM80 ListenWXM80 Stop

You find our weather info also at:

UK Metoffice

WeatherCloud

Weather Underground

Northeastern Weather Network

AWEKAS

Citizen Weather Observer Program (CWOP)

HAMweather, WeatherForYou, PWS Weather


Weather Underground History page Text

Daily Summary for February 7, 2016 Units:  English    Metric   Both
« Previous Day
Next Day »
Daily Weekly Monthly Yearly Custom
  High: Low: Average:
Temperature: 44.3 °F 27.4 °F 36.7 °F
Dew Point: 35.5 °F 24.4 °F 30.9 °F
Humidity: 92 % 55 % 80 %
Wind Speed: 16.9 mph 0.0 mph 3.3 mph
Wind Gust: 23.0 mph - -
Wind:- - SSE
Pressure: 30.24 in 29.89 in -
Precipitation: 0.00 in    
Historical Graphs
 
 
Tabular Data for February 7, 2016
Time Temperature Dew Point Pressure Wind Wind Speed Wind Gust Humidity Rainfall Rate (Hourly)
00:02 33.2 °F 27.7 °F 30.24 in WSW 2.7 mph 4.6 mph 80 % 0.00 in
00:07 33.2 °F 27.7 °F 30.24 in SSW 1.8 mph 5.8 mph 80 % 0.00 in
00:12 33.3 °F 27.8 °F 30.24 in WSW 3.4 mph 8.0 mph 80 % 0.00 in
00:17 33.4 °F 27.9 °F 30.24 in SSW 3.9 mph 4.6 mph 80 % 0.00 in
00:22 33.4 °F 27.9 °F 30.24 in SW 1.6 mph 3.5 mph 80 % 0.00 in
00:27 33.4 °F 27.9 °F 30.24 in WSW 1.8 mph 3.5 mph 80 % 0.00 in
00:32 33.4 °F 27.9 °F 30.24 in SW 4.7 mph 7.0 mph 80 % 0.00 in
00:37 33.3 °F 27.8 °F 30.23 in SW 1.9 mph 3.5 mph 80 % 0.00 in
00:43 33.3 °F 28.1 °F 30.23 in SSW 2.4 mph 4.6 mph 81 % 0.00 in
00:48 33.2 °F 28.0 °F 30.22 in SSW 2.0 mph 5.8 mph 81 % 0.00 in
00:53 33.1 °F 27.6 °F 30.22 in SW 3.9 mph 7.0 mph 80 % 0.00 in
00:58 33.1 °F 27.6 °F 30.22 in SSW 3.6 mph 6.9 mph 80 % 0.00 in
01:03 33.1 °F 27.6 °F 30.22 in SW 5.5 mph 7.0 mph 80 % 0.00 in
01:08 33.1 °F 27.6 °F 30.22 in WSW 3.4 mph 5.8 mph 80 % 0.00 in
01:18 33.1 °F 28.2 °F 30.21 in SSW 2.3 mph 3.5 mph 82 % 0.00 in
01:23 33.0 °F 27.8 °F 30.21 in SW 3.1 mph 8.1 mph 81 % 0.00 in
01:28 33.0 °F 27.5 °F 30.21 in WSW 2.3 mph 3.5 mph 80 % 0.00 in
01:34 33.0 °F 27.5 °F 30.21 in SW 2.2 mph 4.0 mph 80 % 0.00 in
01:39 32.9 °F 27.4 °F 30.21 in SSW 3.5 mph 4.0 mph 80 % 0.00 in
01:44 32.9 °F 27.7 °F 30.21 in SSW 3.5 mph 7.0 mph 81 % 0.00 in
01:49 32.8 °F 27.6 °F 30.21 in SSW 3.4 mph 4.6 mph 81 % 0.00 in
01:54 32.8 °F 27.3 °F 30.21 in SW 2.7 mph 3.5 mph 80 % 0.00 in
01:59 32.7 °F 27.5 °F 30.20 in SW 3.7 mph 6.9 mph 81 % 0.00 in
02:04 32.6 °F 27.1 °F 30.20 in SW 3.7 mph 5.0 mph 80 % 0.00 in
02:09 32.6 °F 27.1 °F 30.20 in SW 3.0 mph 6.9 mph 80 % 0.00 in
02:14 32.6 °F 27.4 °F 30.21 in SW 2.5 mph 4.6 mph 81 % 0.00 in
02:19 32.5 °F 27.3 °F 30.21 in SW 3.9 mph 4.0 mph 81 % 0.00 in
02:25 32.5 °F 27.3 °F 30.21 in SW 3.3 mph 4.0 mph 81 % 0.00 in
02:30 32.5 °F 27.0 °F 30.21 in SW 3.2 mph 5.8 mph 80 % 0.00 in
02:35 32.5 °F 27.0 °F 30.21 in SSW 3.5 mph 4.6 mph 80 % 0.00 in
02:40 32.5 °F 27.3 °F 30.21 in SW 2.8 mph 4.6 mph 81 % 0.00 in
02:45 32.5 °F 27.0 °F 30.21 in SSW 3.3 mph 6.9 mph 80 % 0.00 in
02:50 32.4 °F 27.2 °F 30.22 in SW 3.7 mph 6.0 mph 81 % 0.00 in
02:55 32.4 °F 26.9 °F 30.21 in WSW 4.2 mph 5.8 mph 80 % 0.00 in
03:00 32.4 °F 26.9 °F 30.21 in SW 2.1 mph 3.5 mph 80 % 0.00 in
03:05 32.3 °F 26.8 °F 30.21 in SW 2.7 mph 8.1 mph 80 % 0.00 in
03:10 32.3 °F 26.8 °F 30.21 in SSW 1.7 mph 2.3 mph 80 % 0.00 in
03:16 32.2 °F 27.0 °F 30.21 in SW 3.2 mph 4.6 mph 81 % 0.00 in
03:21 32.2 °F 27.0 °F 30.21 in SW 2.8 mph 4.6 mph 81 % 0.00 in
03:26 32.1 °F 26.9 °F 30.20 in WSW 0.8 mph 3.5 mph 81 % 0.00 in
03:31 32.1 °F 26.9 °F 30.19 in SW 3.0 mph 3.5 mph 81 % 0.00 in
03:36 32.0 °F 26.8 °F 30.19 in SW 1.5 mph 3.5 mph 81 % 0.00 in
03:46 31.9 °F 27.0 °F 30.20 in WSW 1.1 mph 3.0 mph 82 % 0.00 in
03:51 31.8 °F 26.9 °F 30.20 in WSW 1.3 mph 3.5 mph 82 % 0.00 in
03:56 31.7 °F 27.1 °F 30.19 in SSW 0.4 mph 2.3 mph 83 % 0.00 in
04:01 31.6 °F 27.0 °F 30.19 in SW 0.9 mph 2.3 mph 83 % 0.00 in
04:07 31.6 °F 27.3 °F 30.19 in WSW 1.5 mph 3.0 mph 84 % 0.00 in
04:12 31.5 °F 27.2 °F 30.18 in SW 1.3 mph 3.5 mph 84 % 0.00 in
04:17 31.5 °F 27.2 °F 30.18 in WSW 2.9 mph 4.6 mph 84 % 0.00 in
04:27 31.3 °F 27.0 °F 30.18 in SW 1.7 mph 3.5 mph 84 % 0.00 in
04:32 31.3 °F 27.0 °F 30.18 in WSW 1.2 mph 3.5 mph 84 % 0.00 in
04:37 31.2 °F 26.9 °F 30.18 in SW 2.2 mph 3.5 mph 84 % 0.00 in
04:42 31.1 °F 26.5 °F 30.18 in SW 1.6 mph 3.5 mph 83 % 0.00 in
04:47 31.0 °F 26.4 °F 30.17 in SW 2.9 mph 4.6 mph 83 % 0.00 in
04:52 30.9 °F 26.3 °F 30.17 in SW 1.4 mph 2.3 mph 83 % 0.00 in
04:58 30.8 °F 26.2 °F 30.17 in SW 1.5 mph 4.0 mph 83 % 0.00 in
05:03 30.8 °F 26.5 °F 30.17 in SW 0.4 mph 3.5 mph 84 % 0.00 in
05:08 30.8 °F 26.5 °F 30.17 in SW 1.1 mph 3.5 mph 84 % 0.00 in
05:13 30.7 °F 26.4 °F 30.17 in SW 1.3 mph 2.3 mph 84 % 0.00 in
05:18 30.6 °F 26.3 °F 30.16 in SW 1.7 mph 3.5 mph 84 % 0.00 in
05:28 30.3 °F 25.8 °F 30.16 in SW 1.7 mph 3.0 mph 83 % 0.00 in
05:33 30.1 °F 25.8 °F 30.16 in WSW 1.4 mph 2.3 mph 84 % 0.00 in
05:38 30.1 °F 26.1 °F 30.17 in WSW 0.1 mph   85 % 0.00 in
05:43 29.9 °F 25.9 °F 30.17 in Calm   1.2 mph 85 % 0.00 in
05:54 29.6 °F 25.4 °F 30.17 in Calm     84 % 0.00 in
05:59 29.4 °F 25.2 °F 30.17 in Calm     84 % 0.00 in
06:09 29.0 °F 25.1 °F 30.17 in Calm     85 % 0.00 in
06:14 28.8 °F 24.9 °F 30.18 in Calm   1.2 mph 85 % 0.00 in
06:19 28.5 °F 24.6 °F 30.19 in WSW 0.8 mph 2.3 mph 85 % 0.00 in
06:24 28.4 °F 24.7 °F 30.19 in Calm   1.2 mph 86 % 0.00 in
06:29 28.3 °F 24.6 °F 30.18 in Calm     86 % 0.00 in
06:34 28.1 °F 24.7 °F 30.19 in WSW 0.1 mph 1.2 mph 87 % 0.00 in
06:45 27.8 °F 24.4 °F 30.17 in WSW 0.5 mph 2.3 mph 87 % 0.00 in
06:50 27.8 °F 24.7 °F 30.17 in WSW 0.7 mph 1.2 mph 88 % 0.00 in
06:55 27.7 °F 24.6 °F 30.17 in Calm     88 % 0.00 in
07:00 27.6 °F 24.5 °F 30.17 in Calm     88 % 0.00 in
07:05 27.6 °F 24.8 °F 30.17 in WSW 0.4 mph 1.2 mph 89 % 0.00 in
07:10 27.6 °F 24.8 °F 30.17 in Calm     89 % 0.00 in
07:15 27.6 °F 24.8 °F 30.17 in Calm   1.2 mph 89 % 0.00 in
07:20 27.6 °F 24.8 °F 30.16 in Calm     89 % 0.00 in
07:25 27.5 °F 24.4 °F 30.17 in WSW 0.5 mph 2.3 mph 88 % 0.00 in
07:31 27.5 °F 24.4 °F 30.17 in WSW 0.5 mph 2.3 mph 88 % 0.00 in
07:36 27.4 °F 24.6 °F 30.17 in WSW 0.2 mph 2.3 mph 89 % 0.00 in
07:41 27.4 °F 24.6 °F 30.16 in Calm     89 % 0.00 in
07:46 27.5 °F 25.0 °F 30.17 in WSW 0.7 mph 1.2 mph 90 % 0.00 in
07:51 27.6 °F 25.1 °F 30.18 in WSW 1.0 mph 2.3 mph 90 % 0.00 in
07:56 27.8 °F 25.2 °F 30.17 in WSW 0.1 mph 1.0 mph 90 % 0.00 in
08:01 27.9 °F 25.6 °F 30.17 in Calm     91 % 0.00 in
08:11 28.4 °F 26.1 °F 30.17 in WSW 0.5 mph 1.2 mph 91 % 0.00 in
08:16 28.7 °F 26.7 °F 30.17 in WSW 0.3 mph 1.2 mph 92 % 0.00 in
08:22 29.3 °F 27.3 °F 30.17 in WSW 0.7 mph 2.3 mph 92 % 0.00 in
08:27 29.9 °F 27.9 °F 30.17 in ENE 0.9 mph 2.3 mph 92 % 0.00 in
08:32 30.7 °F 28.7 °F 30.18 in ENE 3.5 mph 5.0 mph 92 % 0.00 in
08:37 31.6 °F 28.7 °F 30.17 in SSW 1.3 mph 3.5 mph 89 % 0.00 in
08:42 32.5 °F 29.3 °F 30.17 in SSW 2.8 mph 4.6 mph 88 % 0.00 in
08:47 33.6 °F 29.6 °F 30.17 in SSW 3.1 mph 4.6 mph 85 % 0.00 in
08:52 34.6 °F 29.7 °F 30.16 in West 1.9 mph 3.5 mph 82 % 0.00 in
08:57 35.5 °F 30.5 °F 30.16 in WSW 3.0 mph 4.0 mph 82 % 0.00 in
09:02 36.5 °F 30.6 °F 30.17 in WSW 3.4 mph 6.9 mph 79 % 0.00 in
09:07 37.5 °F 30.3 °F 30.17 in SW 5.5 mph 7.0 mph 75 % 0.00 in
09:13 38.5 °F 29.9 °F 30.17 in West 5.5 mph 7.0 mph 71 % 0.00 in
09:18 39.1 °F 31.2 °F 30.16 in West 4.3 mph 6.0 mph 73 % 0.00 in
09:28 39.6 °F 31.3 °F 30.15 in WNW 2.3 mph 5.0 mph 72 % 0.00 in
09:33 39.7 °F 31.4 °F 30.16 in WNW 3.6 mph 5.8 mph 72 % 0.00 in
09:43 39.6 °F 31.0 °F 30.15 in WNW 2.8 mph 5.8 mph 71 % 0.00 in
09:48 40.0 °F 30.3 °F 30.14 in SW 4.4 mph 5.0 mph 68 % 0.00 in
09:53 40.2 °F 30.5 °F 30.14 in WSW 3.4 mph 3.5 mph 68 % 0.00 in
09:58 40.6 °F 31.2 °F 30.15 in WSW 1.5 mph 3.5 mph 69 % 0.00 in
10:04 41.1 °F 32.8 °F 30.15 in NNW 1.9 mph 3.5 mph 72 % 0.00 in
10:09 41.3 °F 33.6 °F 30.15 in NNW 2.2 mph 5.0 mph 74 % 0.00 in
10:14 41.4 °F 33.0 °F 30.15 in WNW 4.2 mph 5.0 mph 72 % 0.00 in
10:19 41.4 °F 33.7 °F 30.15 in NNW 1.3 mph 3.5 mph 74 % 0.00 in
10:24 41.5 °F 33.5 °F 30.15 in North 1.5 mph 2.3 mph 73 % 0.00 in
10:34 41.8 °F 33.8 °F 30.15 in North 3.1 mph 4.6 mph 73 % 0.00 in
10:39 41.6 °F 33.6 °F 30.15 in NW 3.2 mph 5.8 mph 73 % 0.00 in
10:44 41.4 °F 33.7 °F 30.15 in NW 2.5 mph 3.5 mph 74 % 0.00 in
10:49 41.3 °F 34.0 °F 30.14 in NW 2.8 mph 3.5 mph 75 % 0.00 in
10:55 41.1 °F 34.1 °F 30.14 in NW 2.0 mph 5.8 mph 76 % 0.00 in
11:00 41.0 °F 33.7 °F 30.13 in NW 3.1 mph 5.8 mph 75 % 0.00 in
11:05 40.7 °F 33.7 °F 30.13 in NW 2.5 mph 5.8 mph 76 % 0.00 in
11:10 40.8 °F 33.8 °F 30.12 in NNW 1.9 mph 5.0 mph 76 % 0.00 in
11:15 40.9 °F 33.6 °F 30.12 in WNW 2.1 mph 4.0 mph 75 % 0.00 in
11:20 40.9 °F 33.6 °F 30.11 in WNW 1.7 mph 3.5 mph 75 % 0.00 in
11:25 41.1 °F 33.4 °F 30.11 in NNW 1.0 mph 3.5 mph 74 % 0.00 in
11:30 41.2 °F 32.9 °F 30.11 in NW 2.7 mph 3.5 mph 72 % 0.00 in
11:35 41.3 °F 33.0 °F 30.11 in NNW 1.8 mph 3.5 mph 72 % 0.00 in
11:40 41.6 °F 32.9 °F 30.11 in NW 1.7 mph 3.5 mph 71 % 0.00 in
11:46 41.7 °F 31.5 °F 30.12 in NW 0.5 mph 1.2 mph 67 % 0.00 in
11:56 41.9 °F 29.8 °F 30.13 in West 1.9 mph 3.5 mph 62 % 0.00 in
12:01 42.0 °F 29.9 °F 30.13 in West 0.3 mph 1.2 mph 62 % 0.00 in
12:06 42.2 °F 30.1 °F 30.13 in Calm   1.2 mph 62 % 0.00 in
12:11 42.5 °F 29.6 °F 30.13 in West 0.6 mph 1.2 mph 60 % 0.00 in
12:15 42.6 °F 30.1 °F 30.13 in West 1.1 mph 2.3 mph 61 % 0.00 in
12:21 42.8 °F 30.3 °F 30.13 in West 0.5 mph 2.3 mph 61 % 0.00 in
12:26 42.9 °F 30.4 °F 30.13 in West 0.4 mph   61 % 0.00 in
12:31 43.3 °F 31.1 °F 30.12 in West 0.8 mph 2.3 mph 62 % 0.00 in
12:36 43.5 °F 30.5 °F 30.12 in West 1.2 mph 2.3 mph 60 % 0.00 in
12:41 43.8 °F 29.5 °F 30.11 in West 0.8 mph 1.2 mph 57 % 0.00 in
12:46 44.0 °F 28.9 °F 30.11 in West 0.4 mph 1.2 mph 55 % 0.00 in
12:51 44.2 °F 29.0 °F 30.11 in West 0.6 mph 1.2 mph 55 % 0.00 in
12:56 44.3 °F 30.0 °F 30.11 in West 0.7 mph 2.0 mph 57 % 0.00 in
13:01 44.2 °F 31.2 °F 30.11 in NE 1.7 mph 3.5 mph 60 % 0.00 in
13:06 43.4 °F 30.0 °F 30.10 in NE 2.4 mph 3.5 mph 59 % 0.00 in
13:12 42.6 °F 29.7 °F 30.10 in ENE 2.3 mph 3.5 mph 60 % 0.00 in
13:17 42.4 °F 31.5 °F 30.10 in ENE 1.8 mph 3.5 mph 65 % 0.00 in
13:22 42.5 °F 31.9 °F 30.10 in ENE 1.6 mph 4.0 mph 66 % 0.00 in
13:27 42.5 °F 31.6 °F 30.09 in ENE 1.8 mph 3.5 mph 65 % 0.00 in
13:32 42.4 °F 31.5 °F 30.09 in ENE 2.3 mph 3.5 mph 65 % 0.00 in
13:37 42.3 °F 31.7 °F 30.09 in ENE 2.4 mph 3.5 mph 66 % 0.00 in
13:42 42.2 °F 32.8 °F 30.09 in NE 2.2 mph 3.5 mph 69 % 0.00 in
13:47 42.3 °F 33.2 °F 30.08 in NE 2.4 mph 3.5 mph 70 % 0.00 in
13:52 42.4 °F 33.7 °F 30.08 in NE 3.6 mph 4.0 mph 71 % 0.00 in
13:57 42.2 °F 33.5 °F 30.08 in ENE 1.9 mph 4.0 mph 71 % 0.00 in
14:03 42.2 °F 33.1 °F 30.08 in ENE 3.0 mph 4.0 mph 70 % 0.00 in
14:08 42.2 °F 33.1 °F 30.08 in ENE 2.5 mph 3.5 mph 70 % 0.00 in
14:13 42.3 °F 33.2 °F 30.07 in ENE 2.4 mph 3.5 mph 70 % 0.00 in
14:18 42.4 °F 33.3 °F 30.07 in ENE 2.3 mph 3.5 mph 70 % 0.00 in
14:23 42.4 °F 33.7 °F 30.07 in ENE 2.4 mph 3.5 mph 71 % 0.00 in
14:28 42.4 °F 33.7 °F 30.07 in ENE 1.7 mph 2.3 mph 71 % 0.00 in
14:33 42.5 °F 33.8 °F 30.07 in ENE 1.9 mph 3.5 mph 71 % 0.00 in
14:43 42.6 °F 34.2 °F 30.06 in ENE 3.0 mph 3.5 mph 72 % 0.00 in
14:48 42.5 °F 34.5 °F 30.06 in NE 2.1 mph 4.0 mph 73 % 0.00 in
14:54 42.4 °F 34.0 °F 30.06 in ENE 3.1 mph 4.6 mph 72 % 0.00 in
14:59 42.2 °F 34.5 °F 30.05 in ENE 3.2 mph 6.9 mph 74 % 0.00 in
15:04 41.9 °F 33.9 °F 30.04 in ENE 3.5 mph 6.9 mph 73 % 0.00 in
15:09 41.5 °F 34.2 °F 30.04 in ENE 4.9 mph 6.9 mph 75 % 0.00 in
15:14 41.1 °F 33.8 °F 30.04 in ENE 3.2 mph 4.6 mph 75 % 0.00 in
15:19 40.9 °F 34.2 °F 30.03 in ENE 2.1 mph 3.5 mph 77 % 0.00 in
15:24 40.7 °F 34.0 °F 30.03 in ENE 3.4 mph 6.9 mph 77 % 0.00 in
15:29 40.5 °F 33.9 °F 30.03 in ENE 2.5 mph 6.9 mph 77 % 0.00 in
15:34 40.3 °F 34.0 °F 30.03 in ENE 2.1 mph 3.5 mph 78 % 0.00 in
15:39 40.1 °F 34.1 °F 30.03 in ENE 1.6 mph 3.5 mph 79 % 0.00 in
15:45 40.0 °F 34.3 °F 30.03 in ENE 1.5 mph 3.5 mph 80 % 0.00 in
15:50 39.9 °F 34.5 °F 30.03 in ENE 1.9 mph 2.3 mph 81 % 0.00 in
15:55 39.8 °F 34.4 °F 30.03 in ENE 2.3 mph 4.6 mph 81 % 0.00 in
16:00 39.8 °F 34.8 °F 30.04 in ENE 1.0 mph 3.5 mph 82 % 0.00 in
16:05 39.7 °F 35.0 °F 30.03 in ENE 0.6 mph 1.2 mph 83 % 0.00 in
16:10 39.7 °F 35.0 °F 30.03 in ENE 1.9 mph 3.5 mph 83 % 0.00 in
16:15 39.7 °F 35.0 °F 30.04 in ENE 1.2 mph 2.0 mph 83 % 0.00 in
16:20 39.6 °F 35.2 °F 30.04 in ENE 0.6 mph 1.2 mph 84 % 0.00 in
16:25 39.6 °F 35.2 °F 30.04 in ENE 0.2 mph 1.2 mph 84 % 0.00 in
16:30 39.6 °F 35.2 °F 30.04 in ENE 0.3 mph 1.2 mph 84 % 0.00 in
16:36 39.6 °F 35.5 °F 30.04 in ENE 1.3 mph 2.3 mph 85 % 0.00 in
16:41 39.5 °F 35.4 °F 30.03 in ENE 2.0 mph 3.5 mph 85 % 0.00 in
16:46 39.4 °F 35.3 °F 30.03 in ENE 1.6 mph 3.5 mph 85 % 0.00 in
16:51 39.3 °F 35.2 °F 30.02 in ENE 2.0 mph 3.5 mph 85 % 0.00 in
16:56 39.2 °F 35.1 °F 30.02 in East 3.8 mph 6.0 mph 85 % 0.00 in
17:01 39.0 °F 35.2 °F 30.02 in ENE 3.0 mph 3.5 mph 86 % 0.00 in
17:06 38.9 °F 35.1 °F 30.02 in ENE 2.4 mph 3.5 mph 86 % 0.00 in
17:11 38.7 °F 34.9 °F 30.03 in ENE 3.5 mph 4.0 mph 86 % 0.00 in
17:16 38.7 °F 35.2 °F 30.03 in ENE 4.3 mph 6.9 mph 87 % 0.00 in
17:21 38.6 °F 35.1 °F 30.03 in ENE 2.3 mph 3.5 mph 87 % 0.00 in
17:27 38.5 °F 35.0 °F 30.03 in ENE 2.2 mph 4.6 mph 87 % 0.00 in
17:32 38.4 °F 34.9 °F 30.02 in ENE 4.0 mph 6.0 mph 87 % 0.00 in
17:37 38.3 °F 34.8 °F 30.02 in ENE 3.8 mph 5.0 mph 87 % 0.00 in
17:42 38.3 °F 34.8 °F 30.02 in ENE 4.5 mph 5.8 mph 87 % 0.00 in
17:47 38.3 °F 34.8 °F 30.02 in ENE 5.1 mph 7.0 mph 87 % 0.00 in
17:52 38.3 °F 34.8 °F 30.02 in ENE 3.6 mph 7.0 mph 87 % 0.00 in
17:57 38.3 °F 34.8 °F 30.02 in ENE 4.0 mph 7.0 mph 87 % 0.00 in
18:02 38.3 °F 34.5 °F 30.01 in ENE 4.3 mph 4.6 mph 86 % 0.00 in
18:07 38.2 °F 34.7 °F 30.01 in ENE 3.0 mph 3.5 mph 87 % 0.00 in
18:12 38.2 °F 34.7 °F 30.01 in ENE 3.8 mph 4.6 mph 87 % 0.00 in
18:18 38.2 °F 34.7 °F 30.01 in ENE 2.7 mph 4.6 mph 87 % 0.00 in
18:23 38.1 °F 34.6 °F 30.01 in East 1.6 mph 3.5 mph 87 % 0.00 in
18:28 38.1 °F 34.9 °F 30.01 in East 3.0 mph 3.5 mph 88 % 0.00 in
18:33 38.0 °F 34.8 °F 30.01 in East 2.1 mph 3.5 mph 88 % 0.00 in
18:38 37.9 °F 34.7 °F 30.01 in East 1.3 mph 3.5 mph 88 % 0.00 in
18:43 37.9 °F 34.7 °F 30.02 in East 0.8 mph 2.3 mph 88 % 0.00 in
18:48 37.8 °F 34.6 °F 30.02 in East 1.4 mph 3.5 mph 88 % 0.00 in
18:53 37.8 °F 34.6 °F 30.02 in ENE 1.6 mph 3.0 mph 88 % 0.00 in
18:58 37.8 °F 34.8 °F 30.02 in ENE 2.4 mph 3.5 mph 89 % 0.00 in
19:04 37.9 °F 34.9 °F 30.01 in ENE 2.2 mph 3.5 mph 89 % 0.00 in
19:09 37.9 °F 34.9 °F 30.01 in ENE 1.8 mph 3.5 mph 89 % 0.00 in
19:14 37.8 °F 34.8 °F 30.00 in ENE 2.2 mph 3.5 mph 89 % 0.00 in
19:19 37.8 °F 34.8 °F 30.00 in East 2.6 mph 4.6 mph 89 % 0.00 in
19:24 37.7 °F 34.8 °F 30.00 in East 4.4 mph 5.0 mph 89 % 0.00 in
19:29 37.6 °F 34.7 °F 29.99 in East 2.9 mph 4.6 mph 89 % 0.00 in
19:34 37.6 °F 34.7 °F 29.98 in East 2.2 mph 4.6 mph 89 % 0.00 in
19:39 37.6 °F 34.9 °F 29.98 in East 3.3 mph 4.6 mph 90 % 0.00 in
19:44 37.5 °F 34.6 °F 29.98 in East 6.2 mph 8.1 mph 89 % 0.00 in
19:55 37.7 °F 34.5 °F 29.98 in East 4.1 mph 5.0 mph 88 % 0.00 in
20:00 37.7 °F 34.5 °F 29.98 in East 4.4 mph 6.9 mph 88 % 0.00 in
20:10 37.8 °F 34.6 °F 29.98 in East 3.0 mph 5.8 mph 88 % 0.00 in
20:15 37.8 °F 34.6 °F 29.98 in East 4.3 mph 5.8 mph 88 % 0.00 in
20:20 37.9 °F 34.7 °F 29.98 in East 4.0 mph 6.0 mph 88 % 0.00 in
20:30 37.8 °F 34.6 °F 29.98 in East 3.8 mph 5.0 mph 88 % 0.00 in
20:35 37.8 °F 34.8 °F 29.97 in East 4.0 mph 5.8 mph 89 % 0.00 in
20:40 37.9 °F 34.9 °F 29.97 in ENE 3.8 mph 6.9 mph 89 % 0.00 in
20:46 38.0 °F 34.8 °F 29.96 in ENE 4.2 mph 5.8 mph 88 % 0.00 in
20:51 38.0 °F 34.8 °F 29.96 in East 4.1 mph 6.9 mph 88 % 0.00 in
20:56 38.1 °F 34.6 °F 29.96 in East 5.6 mph 7.0 mph 87 % 0.00 in
21:01 38.1 °F 34.6 °F 29.96 in East 5.8 mph 7.0 mph 87 % 0.00 in
21:06 38.2 °F 34.4 °F 29.95 in East 6.8 mph 8.1 mph 86 % 0.00 in
21:11 38.2 °F 34.4 °F 29.95 in East 7.5 mph 9.2 mph 86 % 0.00 in
21:16 38.3 °F 34.2 °F 29.95 in East 7.9 mph 9.2 mph 85 % 0.00 in
21:26 38.6 °F 33.9 °F 29.94 in East 8.4 mph 11.5 mph 83 % 0.00 in
21:31 38.8 °F 34.1 °F 29.94 in ENE 8.1 mph 11.5 mph 83 % 0.00 in
21:37 38.8 °F 34.1 °F 29.94 in East 8.0 mph 10.4 mph 83 % 0.00 in
21:42 38.9 °F 34.2 °F 29.94 in ENE 7.4 mph 11.5 mph 83 % 0.00 in
21:47 39.0 °F 34.6 °F 29.93 in ENE 8.6 mph 10.4 mph 84 % 0.00 in
21:52 39.1 °F 34.4 °F 29.93 in ENE 9.0 mph 11.5 mph 83 % 0.00 in
21:57 39.2 °F 34.5 °F 29.93 in ENE 10.5 mph 13.0 mph 83 % 0.00 in
22:02 39.2 °F 34.5 °F 29.92 in ENE 8.9 mph 15.0 mph 83 % 0.00 in
22:12 39.3 °F 34.3 °F 29.93 in ENE 9.0 mph 12.7 mph 82 % 0.00 in
22:17 39.2 °F 33.5 °F 29.92 in ENE 9.8 mph 11.5 mph 80 % 0.00 in
22:22 39.3 °F 33.0 °F 29.92 in ENE 9.2 mph 13.8 mph 78 % 0.00 in
22:28 39.3 °F 33.3 °F 29.93 in ENE 11.2 mph 11.5 mph 79 % 0.00 in
22:33 39.3 °F 33.0 °F 29.93 in ENE 10.3 mph 13.8 mph 78 % 0.00 in
22:38 39.3 °F 32.7 °F 29.93 in ENE 10.7 mph 15.0 mph 77 % 0.00 in
22:43 39.3 °F 33.3 °F 29.93 in ENE 11.4 mph 15.0 mph 79 % 0.00 in
22:48 39.2 °F 33.5 °F 29.93 in ENE 13.4 mph 18.4 mph 80 % 0.00 in
22:53 39.1 °F 32.8 °F 29.92 in East 11.5 mph 16.1 mph 78 % 0.00 in
22:58 39.0 °F 32.7 °F 29.92 in ENE 11.6 mph 17.3 mph 78 % 0.00 in
23:03 39.0 °F 32.7 °F 29.91 in NE 14.5 mph 19.6 mph 78 % 0.00 in
23:08 39.0 °F 32.1 °F 29.91 in ENE 13.9 mph 17.3 mph 76 % 0.00 in
23:13 38.9 °F 32.3 °F 29.91 in ENE 13.9 mph 16.0 mph 77 % 0.00 in
23:19 38.9 °F 32.0 °F 29.90 in ENE 12.3 mph 21.9 mph 76 % 0.00 in
23:24 38.8 °F 31.9 °F 29.90 in East 14.7 mph 23.0 mph 76 % 0.00 in
23:29 38.8 °F 31.6 °F 29.89 in NE 13.9 mph 17.3 mph 75 % 0.00 in
23:34 38.7 °F 31.8 °F 29.89 in East 13.8 mph 19.6 mph 76 % 0.00 in
23:39 38.7 °F 31.5 °F 29.89 in ENE 16.9 mph 23.0 mph 75 % 0.00 in
23:44 38.6 °F 31.4 °F 29.89 in East 12.6 mph 20.7 mph 75 % 0.00 in
23:54 38.6 °F 31.7 °F 29.89 in NE 14.7 mph 17.0 mph 76 % 0.00 in
Crab Meadow Weather
Compliments of Weather Underground - 2.75 mb

Script developed by  Jim McMurry - jmcmurry@mwt.net Adapted for the template by  Wim van der Kuil - Leuven-Template.eu

Recycling: Every ton of mixed paper recycled can save the energy equivalent of 185 gallons of gas.